createdAt,value
2019-02-02T00:04:47.058Z,86
2019-02-02T00:19:56.103Z,83
2019-02-02T00:35:11.824Z,84
2019-02-02T00:50:24.068Z,85
2019-02-02T01:05:36.242Z,85.6
2019-02-02T01:20:38.624Z,86.2
2019-02-02T01:36:00.511Z,86.6
2019-02-02T01:51:12.809Z,87.1
2019-02-02T02:06:24.580Z,87.9
2019-02-02T02:21:36.478Z,87.2
2019-02-02T02:36:48.100Z,88
2019-02-02T02:52:00.001Z,87.5
2019-02-02T03:07:11.742Z,86.6
2019-02-02T03:22:23.485Z,85.9
2019-02-02T03:37:30.425Z,88.3
2019-02-02T03:52:46.675Z,89.5
2019-02-02T04:07:58.351Z,86
2019-02-02T04:23:09.807Z,88.3
2019-02-02T04:38:12.467Z,89
2019-02-02T04:53:32.952Z,87.9
2019-02-02T05:08:44.478Z,88
2019-02-02T05:23:56.138Z,86.8
2019-02-02T05:39:07.603Z,87.6
2019-02-02T05:54:19.090Z,88.2
2019-02-02T06:09:32.583Z,88.5
2019-02-02T06:24:42.531Z,88.3
2019-02-02T06:39:53.746Z,88.1
2019-02-02T06:55:02.005Z,88.2
2019-02-02T07:10:16.836Z,87.1
2019-02-02T07:25:28.332Z,87.8
2019-02-02T07:40:39.889Z,87.6
2019-02-02T07:55:43.749Z,86.9
2019-02-02T08:11:03.100Z,87.8
2019-02-02T08:26:14.807Z,85.5
2019-02-02T08:41:26.632Z,85.6
2019-02-02T08:56:38.336Z,83.5
2019-02-02T09:11:50.195Z,85.7
2019-02-02T09:27:01.928Z,84.2
2019-02-02T09:42:13.828Z,85.3
2019-02-02T09:57:28.286Z,83.8
2019-02-02T10:12:34.518Z,83.8
2019-02-02T10:27:49.609Z,82.1
2019-02-02T10:43:01.410Z,83.4
2019-02-02T10:58:13.397Z,83.3
2019-02-02T11:13:17.630Z,81.6
2019-02-02T11:28:37.319Z,83.3
2019-02-02T11:43:48.979Z,84
2019-02-02T11:59:00.905Z,84.3
2019-02-02T12:14:12.904Z,84.4
2019-02-02T12:29:24.881Z,85
2019-02-02T12:44:36.928Z,81.2
2019-02-02T12:59:48.853Z,84.4
2019-02-02T13:15:00.952Z,84.2
2019-02-02T13:30:09.569Z,83
2019-02-02T13:45:24.834Z,84
2019-02-02T14:00:36.845Z,82.9
2019-02-02T14:15:48.970Z,83
2019-02-02T14:30:54.074Z,83.5
2019-02-02T14:46:13.291Z,82.5
2019-02-02T15:01:25.712Z,82.8
2019-02-02T15:16:37.999Z,85.2
2019-02-02T15:31:50.133Z,83
2019-02-02T15:47:01.646Z,83.8
2019-02-02T16:02:14.977Z,85.2
2019-02-02T16:17:26.823Z,86.8
2019-02-02T16:32:39.049Z,87
2019-02-02T16:47:44.474Z,87.1
2019-02-02T17:03:03.190Z,87.1
2019-02-02T17:18:15.262Z,86.4
2019-02-02T17:33:27.357Z,83.7
2019-02-02T17:48:39.434Z,84.5
2019-02-02T18:03:51.424Z,84.5
2019-02-02T18:19:03.163Z,85.8
2019-02-02T18:34:15.099Z,85.2
2019-02-02T18:49:27.047Z,84.4
2019-02-02T19:04:36.256Z,85.4
2019-02-02T19:19:51.107Z,84.8
2019-02-02T19:35:16.476Z,82.3
2019-02-02T19:50:54.872Z,83.1
2019-02-02T20:06:20.905Z,83.5
2019-02-02T20:21:35.718Z,88.2
2019-02-02T20:36:48.131Z,82
2019-02-02T20:52:00.210Z,82.2
2019-02-02T21:07:03.083Z,83.8
2019-02-02T21:22:23.573Z,86.7
2019-02-02T21:37:35.380Z,85.6
2019-02-02T21:52:47.066Z,84.8
2019-02-02T22:07:58.733Z,85.4
2019-02-02T22:23:10.288Z,83.8
2019-02-02T22:38:21.852Z,84.9
2019-02-02T22:53:33.237Z,84.8
2019-02-02T23:08:45.138Z,83.4
2019-02-02T23:23:52.239Z,82.5
2019-02-02T23:39:08.312Z,85
2019-02-02T23:54:19.280Z,84.9
